sensor_id;sensor_type;location;lat;lon;timestamp;P1;durP1;ratioP1;P2;durP2;ratioP2
3755;SDS011;1893;52.526;13.360;2023-08-20T00:01:23;26.77;;;18.00;;
3755;SDS011;1893;52.526;13.360;2023-08-20T00:03:53;19.40;;;17.60;;
3755;SDS011;1893;52.526;13.360;2023-08-20T00:06:19;17.27;;;15.77;;
3755;SDS011;1893;52.526;13.360;2023-08-20T00:08:46;21.50;;;18.40;;
3755;SDS011;1893;52.526;13.360;2023-08-20T00:11:12;20.63;;;18.03;;
3755;SDS011;1893;52.526;13.360;2023-08-20T00:13:38;18.77;;;16.90;;
3755;SDS011;1893;52.526;13.360;2023-08-20T00:16:04;18.63;;;16.83;;
3755;SDS011;1893;52.526;13.360;2023-08-20T00:18:30;20.10;;;18.20;;
3755;SDS011;1893;52.526;13.360;2023-08-20T00:20:56;20.03;;;18.20;;
3755;SDS011;1893;52.526;13.360;2023-08-20T00:23:22;19.70;;;17.80;;
3755;SDS011;1893;52.526;13.360;2023-08-20T00:25:48;18.93;;;17.03;;
3755;SDS011;1893;52.526;13.360;2023-08-20T00:28:14;20.37;;;17.70;;
3755;SDS011;1893;52.526;13.360;2023-08-20T00:30:40;18.07;;;16.20;;
3755;SDS011;1893;52.526;13.360;2023-08-20T00:33:05;18.90;;;17.10;;
3755;SDS011;1893;52.526;13.360;2023-08-20T00:35:31;18.27;;;16.33;;
3755;SDS011;1893;52.526;13.360;2023-08-20T00:37:57;18.63;;;16.93;;
3755;SDS011;1893;52.526;13.360;2023-08-20T00:40:23;18.97;;;17.27;;
3755;SDS011;1893;52.526;13.360;2023-08-20T00:42:49;19.33;;;17.47;;
3755;SDS011;1893;52.526;13.360;2023-08-20T00:45:15;20.10;;;18.20;;
3755;SDS011;1893;52.526;13.360;2023-08-20T00:47:43;18.63;;;16.73;;
3755;SDS011;1893;52.526;13.360;2023-08-20T00:50:09;19.37;;;16.97;;
3755;SDS011;1893;52.526;13.360;2023-08-20T00:52:36;19.33;;;17.57;;
3755;SDS011;1893;52.526;13.360;2023-08-20T00:55:09;18.23;;;16.27;;
3755;SDS011;1893;52.526;13.360;2023-08-20T00:57:38;19.80;;;17.40;;
3755;SDS011;1893;52.526;13.360;2023-08-20T01:00:05;18.07;;;16.20;;
3755;SDS011;1893;52.526;13.360;2023-08-20T01:02:32;17.53;;;15.70;;
3755;SDS011;1893;52.526;13.360;2023-08-20T01:04:59;17.70;;;16.03;;
3755;SDS011;1893;52.526;13.360;2023-08-20T01:12:41;16.93;;;15.33;;
3755;SDS011;1893;52.526;13.360;2023-08-20T01:15:08;17.80;;;15.73;;
3755;SDS011;1893;52.526;13.360;2023-08-20T01:17:39;17.90;;;16.00;;
3755;SDS011;1893;52.526;13.360;2023-08-20T01:20:08;17.17;;;15.43;;
3755;SDS011;1893;52.526;13.360;2023-08-20T01:28:36;18.27;;;16.37;;
3755;SDS011;1893;52.526;13.360;2023-08-20T01:31:04;17.07;;;15.37;;
3755;SDS011;1893;52.526;13.360;2023-08-20T01:33:30;17.03;;;15.33;;
3755;SDS011;1893;52.526;13.360;2023-08-20T01:35:57;18.80;;;17.00;;
3755;SDS011;1893;52.526;13.360;2023-08-20T01:38:22;17.57;;;15.60;;
3755;SDS011;1893;52.526;13.360;2023-08-20T01:40:48;19.43;;;16.23;;
3755;SDS011;1893;52.526;13.360;2023-08-20T01:43:14;23.73;;;16.10;;
3755;SDS011;1893;52.526;13.360;2023-08-20T01:45:40;24.33;;;15.70;;
3755;SDS011;1893;52.526;13.360;2023-08-20T01:48:06;17.13;;;15.10;;
3755;SDS011;1893;52.526;13.360;2023-08-20T01:50:32;17.70;;;15.90;;
3755;SDS011;1893;52.526;13.360;2023-08-20T01:52:59;18.83;;;15.63;;
3755;SDS011;1893;52.526;13.360;2023-08-20T01:55:25;16.83;;;15.10;;
3755;SDS011;1893;52.526;13.360;2023-08-20T01:57:51;16.63;;;15.03;;
3755;SDS011;1893;52.526;13.360;2023-08-20T02:00:16;18.30;;;14.57;;
3755;SDS011;1893;52.526;13.360;2023-08-20T02:02:42;18.50;;;16.60;;
3755;SDS011;1893;52.526;13.360;2023-08-20T02:05:07;20.50;;;17.10;;
3755;SDS011;1893;52.526;13.360;2023-08-20T02:07:35;21.70;;;16.40;;
3755;SDS011;1893;52.526;13.360;2023-08-20T02:10:01;20.27;;;16.33;;
3755;SDS011;1893;52.526;13.360;2023-08-20T02:12:27;18.53;;;15.60;;
3755;SDS011;1893;52.526;13.360;2023-08-20T02:14:52;21.37;;;16.43;;
3755;SDS011;1893;52.526;13.360;2023-08-20T02:17:18;17.20;;;15.53;;
3755;SDS011;1893;52.526;13.360;2023-08-20T02:19:44;23.63;;;16.97;;
3755;SDS011;1893;52.526;13.360;2023-08-20T02:22:09;17.20;;;15.47;;
3755;SDS011;1893;52.526;13.360;2023-08-20T02:24:35;18.50;;;15.30;;
3755;SDS011;1893;52.526;13.360;2023-08-20T02:27:01;18.00;;;16.07;;
3755;SDS011;1893;52.526;13.360;2023-08-20T02:29:27;20.67;;;16.40;;
3755;SDS011;1893;52.526;13.360;2023-08-20T02:31:53;22.57;;;16.40;;
3755;SDS011;1893;52.526;13.360;2023-08-20T02:34:19;19.53;;;16.77;;
3755;SDS011;1893;52.526;13.360;2023-08-20T02:36:44;17.60;;;15.90;;
3755;SDS011;1893;52.526;13.360;2023-08-20T02:39:10;16.97;;;15.13;;
3755;SDS011;1893;52.526;13.360;2023-08-20T02:41:35;17.37;;;15.53;;
3755;SDS011;1893;52.526;13.360;2023-08-20T02:44:01;17.07;;;14.73;;
3755;SDS011;1893;52.526;13.360;2023-08-20T02:46:28;17.23;;;15.30;;
3755;SDS011;1893;52.526;13.360;2023-08-20T02:48:53;15.97;;;14.30;;
3755;SDS011;1893;52.526;13.360;2023-08-20T02:51:19;16.10;;;14.53;;
3755;SDS011;1893;52.526;13.360;2023-08-20T02:53:44;17.33;;;13.73;;
3755;SDS011;1893;52.526;13.360;2023-08-20T02:56:10;14.90;;;13.50;;
3755;SDS011;1893;52.526;13.360;2023-08-20T02:58:36;15.10;;;13.60;;
3755;SDS011;1893;52.526;13.360;2023-08-20T03:01:01;17.40;;;14.03;;
3755;SDS011;1893;52.526;13.360;2023-08-20T03:03:27;16.67;;;14.97;;
3755;SDS011;1893;52.526;13.360;2023-08-20T03:05:53;17.30;;;14.60;;
3755;SDS011;1893;52.526;13.360;2023-08-20T03:08:18;18.37;;;13.63;;
3755;SDS011;1893;52.526;13.360;2023-08-20T03:10:44;19.97;;;13.83;;
3755;SDS011;1893;52.526;13.360;2023-08-20T03:13:10;16.27;;;14.47;;
3755;SDS011;1893;52.526;13.360;2023-08-20T03:15:36;16.23;;;12.30;;
3755;SDS011;1893;52.526;13.360;2023-08-20T03:18:01;16.33;;;13.67;;
3755;SDS011;1893;52.526;13.360;2023-08-20T03:20:28;15.63;;;13.07;;
3755;SDS011;1893;52.526;13.360;2023-08-20T03:22:56;15.70;;;13.97;;
3755;SDS011;1893;52.526;13.360;2023-08-20T03:25:21;16.20;;;14.50;;
3755;SDS011;1893;52.526;13.360;2023-08-20T03:27:47;14.97;;;13.20;;
3755;SDS011;1893;52.526;13.360;2023-08-20T03:30:12;14.57;;;13.07;;
3755;SDS011;1893;52.526;13.360;2023-08-20T03:32:38;14.10;;;12.43;;
3755;SDS011;1893;52.526;13.360;2023-08-20T03:35:04;15.87;;;14.17;;
3755;SDS011;1893;52.526;13.360;2023-08-20T03:37:30;15.10;;;13.17;;
3755;SDS011;1893;52.526;13.360;2023-08-20T03:39:55;16.23;;;13.37;;
3755;SDS011;1893;52.526;13.360;2023-08-20T03:42:21;18.57;;;14.23;;
3755;SDS011;1893;52.526;13.360;2023-08-20T03:44:47;15.70;;;13.80;;
3755;SDS011;1893;52.526;13.360;2023-08-20T03:47:12;17.10;;;14.17;;
3755;SDS011;1893;52.526;13.360;2023-08-20T03:49:39;15.17;;;13.57;;
3755;SDS011;1893;52.526;13.360;2023-08-20T03:52:04;14.83;;;12.27;;
3755;SDS011;1893;52.526;13.360;2023-08-20T03:54:32;15.17;;;13.57;;
3755;SDS011;1893;52.526;13.360;2023-08-20T03:56:58;16.37;;;14.70;;
3755;SDS011;1893;52.526;13.360;2023-08-20T03:59:24;26.07;;;13.80;;
3755;SDS011;1893;52.526;13.360;2023-08-20T04:01:49;16.37;;;14.77;;
3755;SDS011;1893;52.526;13.360;2023-08-20T04:04:15;17.20;;;13.30;;
3755;SDS011;1893;52.526;13.360;2023-08-20T04:06:41;15.63;;;13.37;;
3755;SDS011;1893;52.526;13.360;2023-08-20T04:09:06;14.83;;;13.30;;
3755;SDS011;1893;52.526;13.360;2023-08-20T04:11:34;16.00;;;14.50;;
3755;SDS011;1893;52.526;13.360;2023-08-20T04:13:59;15.70;;;14.07;;
3755;SDS011;1893;52.526;13.360;2023-08-20T04:16:25;16.33;;;13.73;;
3755;SDS011;1893;52.526;13.360;2023-08-20T04:18:51;17.10;;;13.30;;
3755;SDS011;1893;52.526;13.360;2023-08-20T04:21:16;20.23;;;13.83;;
3755;SDS011;1893;52.526;13.360;2023-08-20T04:23:42;17.13;;;13.87;;
3755;SDS011;1893;52.526;13.360;2023-08-20T04:26:08;15.13;;;13.03;;
3755;SDS011;1893;52.526;13.360;2023-08-20T04:28:33;15.73;;;13.70;;
3755;SDS011;1893;52.526;13.360;2023-08-20T04:30:59;18.07;;;14.27;;
3755;SDS011;1893;52.526;13.360;2023-08-20T04:33:25;16.00;;;14.40;;
3755;SDS011;1893;52.526;13.360;2023-08-20T04:35:51;16.10;;;14.10;;
3755;SDS011;1893;52.526;13.360;2023-08-20T04:38:17;17.80;;;14.83;;
3755;SDS011;1893;52.526;13.360;2023-08-20T04:40:45;17.83;;;15.70;;
3755;SDS011;1893;52.526;13.360;2023-08-20T04:43:12;16.23;;;14.30;;
3755;SDS011;1893;52.526;13.360;2023-08-20T04:45:38;18.17;;;15.57;;
3755;SDS011;1893;52.526;13.360;2023-08-20T04:48:03;18.97;;;15.67;;
3755;SDS011;1893;52.526;13.360;2023-08-20T04:50:29;18.13;;;14.67;;
3755;SDS011;1893;52.526;13.360;2023-08-20T04:52:55;15.67;;;14.07;;
3755;SDS011;1893;52.526;13.360;2023-08-20T04:55:20;19.10;;;14.43;;
3755;SDS011;1893;52.526;13.360;2023-08-20T04:57:46;22.33;;;17.17;;
3755;SDS011;1893;52.526;13.360;2023-08-20T05:00:12;21.03;;;15.97;;
3755;SDS011;1893;52.526;13.360;2023-08-20T05:02:38;16.60;;;14.90;;
3755;SDS011;1893;52.526;13.360;2023-08-20T05:05:03;19.43;;;15.87;;
3755;SDS011;1893;52.526;13.360;2023-08-20T05:07:29;21.10;;;17.20;;
3755;SDS011;1893;52.526;13.360;2023-08-20T05:09:56;19.80;;;15.13;;
3755;SDS011;1893;52.526;13.360;2023-08-20T05:12:21;21.83;;;16.43;;
3755;SDS011;1893;52.526;13.360;2023-08-20T05:14:47;22.00;;;15.77;;
3755;SDS011;1893;52.526;13.360;2023-08-20T05:17:12;21.10;;;15.97;;
3755;SDS011;1893;52.526;13.360;2023-08-20T05:19:38;18.00;;;15.23;;
3755;SDS011;1893;52.526;13.360;2023-08-20T05:22:03;20.80;;;17.53;;
3755;SDS011;1893;52.526;13.360;2023-08-20T05:24:29;20.80;;;18.60;;
3755;SDS011;1893;52.526;13.360;2023-08-20T05:29:33;19.90;;;17.00;;
3755;SDS011;1893;52.526;13.360;2023-08-20T05:31:59;17.43;;;15.00;;
3755;SDS011;1893;52.526;13.360;2023-08-20T05:34:24;20.67;;;18.30;;
3755;SDS011;1893;52.526;13.360;2023-08-20T05:36:50;19.53;;;16.87;;
3755;SDS011;1893;52.526;13.360;2023-08-20T05:39:15;20.17;;;17.00;;
3755;SDS011;1893;52.526;13.360;2023-08-20T05:41:41;21.47;;;17.10;;
3755;SDS011;1893;52.526;13.360;2023-08-20T05:44:06;17.97;;;16.10;;
3755;SDS011;1893;52.526;13.360;2023-08-20T05:46:32;19.87;;;16.10;;
3755;SDS011;1893;52.526;13.360;2023-08-20T05:48:58;23.40;;;17.03;;
3755;SDS011;1893;52.526;13.360;2023-08-20T05:51:23;20.37;;;18.10;;
3755;SDS011;1893;52.526;13.360;2023-08-20T05:53:49;19.63;;;17.00;;
3755;SDS011;1893;52.526;13.360;2023-08-20T05:56:14;19.73;;;17.73;;
3755;SDS011;1893;52.526;13.360;2023-08-20T05:58:40;18.60;;;16.70;;
3755;SDS011;1893;52.526;13.360;2023-08-20T06:01:05;23.93;;;18.83;;
3755;SDS011;1893;52.526;13.360;2023-08-20T06:03:31;22.60;;;16.90;;
3755;SDS011;1893;52.526;13.360;2023-08-20T06:05:57;18.97;;;17.00;;
3755;SDS011;1893;52.526;13.360;2023-08-20T06:08:23;21.43;;;19.30;;
3755;SDS011;1893;52.526;13.360;2023-08-20T06:10:49;24.63;;;19.37;;
3755;SDS011;1893;52.526;13.360;2023-08-20T06:13:15;20.33;;;17.83;;
3755;SDS011;1893;52.526;13.360;2023-08-20T06:15:41;23.30;;;18.70;;
3755;SDS011;1893;52.526;13.360;2023-08-20T06:18:06;20.23;;;17.80;;
3755;SDS011;1893;52.526;13.360;2023-08-20T06:20:32;23.93;;;17.60;;
3755;SDS011;1893;52.526;13.360;2023-08-20T06:22:57;19.37;;;16.43;;
3755;SDS011;1893;52.526;13.360;2023-08-20T06:25:23;20.80;;;17.63;;
3755;SDS011;1893;52.526;13.360;2023-08-20T06:27:49;22.63;;;18.70;;
3755;SDS011;1893;52.526;13.360;2023-08-20T06:30:14;25.03;;;18.40;;
3755;SDS011;1893;52.526;13.360;2023-08-20T06:32:40;19.20;;;16.67;;
3755;SDS011;1893;52.526;13.360;2023-08-20T06:35:06;18.67;;;16.27;;
3755;SDS011;1893;52.526;13.360;2023-08-20T06:37:34;19.77;;;17.50;;
3755;SDS011;1893;52.526;13.360;2023-08-20T06:39:59;19.33;;;16.80;;
3755;SDS011;1893;52.526;13.360;2023-08-20T06:42:25;17.83;;;16.13;;
3755;SDS011;1893;52.526;13.360;2023-08-20T06:44:50;21.30;;;16.03;;
3755;SDS011;1893;52.526;13.360;2023-08-20T06:47:16;17.90;;;16.03;;
3755;SDS011;1893;52.526;13.360;2023-08-20T06:49:41;21.90;;;18.33;;
3755;SDS011;1893;52.526;13.360;2023-08-20T06:52:07;20.20;;;17.77;;
3755;SDS011;1893;52.526;13.360;2023-08-20T06:54:32;22.37;;;17.37;;
3755;SDS011;1893;52.526;13.360;2023-08-20T06:56:58;22.33;;;17.90;;
3755;SDS011;1893;52.526;13.360;2023-08-20T06:59:24;19.30;;;16.83;;
3755;SDS011;1893;52.526;13.360;2023-08-20T07:01:49;19.53;;;17.40;;
3755;SDS011;1893;52.526;13.360;2023-08-20T07:04:15;21.47;;;16.17;;
3755;SDS011;1893;52.526;13.360;2023-08-20T07:06:40;27.77;;;17.97;;
3755;SDS011;1893;52.526;13.360;2023-08-20T07:09:06;21.07;;;17.33;;
3755;SDS011;1893;52.526;13.360;2023-08-20T07:11:32;17.03;;;15.23;;
3755;SDS011;1893;52.526;13.360;2023-08-20T07:13:58;18.33;;;14.60;;
3755;SDS011;1893;52.526;13.360;2023-08-20T07:16:23;20.97;;;16.00;;
3755;SDS011;1893;52.526;13.360;2023-08-20T07:18:49;18.10;;;14.67;;
3755;SDS011;1893;52.526;13.360;2023-08-20T07:21:14;21.50;;;16.07;;
3755;SDS011;1893;52.526;13.360;2023-08-20T07:23:40;17.70;;;14.63;;
3755;SDS011;1893;52.526;13.360;2023-08-20T07:26:06;18.00;;;15.20;;
3755;SDS011;1893;52.526;13.360;2023-08-20T07:28:34;21.60;;;15.50;;
3755;SDS011;1893;52.526;13.360;2023-08-20T07:31:18;18.60;;;15.43;;
3755;SDS011;1893;52.526;13.360;2023-08-20T07:33:47;17.13;;;15.33;;
3755;SDS011;1893;52.526;13.360;2023-08-20T07:36:14;19.13;;;15.10;;
3755;SDS011;1893;52.526;13.360;2023-08-20T07:38:40;16.73;;;14.37;;
3755;SDS011;1893;52.526;13.360;2023-08-20T07:41:07;19.00;;;15.00;;
3755;SDS011;1893;52.526;13.360;2023-08-20T07:43:33;18.40;;;14.40;;
3755;SDS011;1893;52.526;13.360;2023-08-20T07:45:59;17.23;;;13.90;;
3755;SDS011;1893;52.526;13.360;2023-08-20T07:48:25;18.57;;;14.53;;
3755;SDS011;1893;52.526;13.360;2023-08-20T07:50:50;15.80;;;14.10;;
3755;SDS011;1893;52.526;13.360;2023-08-20T07:53:16;18.90;;;14.53;;
3755;SDS011;1893;52.526;13.360;2023-08-20T07:55:41;18.40;;;15.90;;
3755;SDS011;1893;52.526;13.360;2023-08-20T07:58:07;16.70;;;15.00;;
3755;SDS011;1893;52.526;13.360;2023-08-20T08:00:33;15.30;;;13.60;;
3755;SDS011;1893;52.526;13.360;2023-08-20T08:02:59;18.90;;;15.40;;
3755;SDS011;1893;52.526;13.360;2023-08-20T08:05:24;17.03;;;15.23;;
3755;SDS011;1893;52.526;13.360;2023-08-20T08:07:50;16.23;;;13.83;;
3755;SDS011;1893;52.526;13.360;2023-08-20T08:10:16;16.90;;;14.90;;
3755;SDS011;1893;52.526;13.360;2023-08-20T08:12:41;15.13;;;12.40;;
3755;SDS011;1893;52.526;13.360;2023-08-20T08:15:07;16.60;;;13.20;;
3755;SDS011;1893;52.526;13.360;2023-08-20T08:17:32;14.50;;;12.73;;
3755;SDS011;1893;52.526;13.360;2023-08-20T08:19:58;15.17;;;13.57;;
3755;SDS011;1893;52.526;13.360;2023-08-20T08:22:24;14.30;;;12.80;;
3755;SDS011;1893;52.526;13.360;2023-08-20T08:24:49;15.07;;;12.70;;
3755;SDS011;1893;52.526;13.360;2023-08-20T08:27:15;15.87;;;12.23;;
3755;SDS011;1893;52.526;13.360;2023-08-20T08:29:40;19.50;;;12.10;;
3755;SDS011;1893;52.526;13.360;2023-08-20T08:32:06;18.30;;;11.67;;
3755;SDS011;1893;52.526;13.360;2023-08-20T08:34:31;11.40;;;10.20;;
3755;SDS011;1893;52.526;13.360;2023-08-20T08:36:57;11.70;;;10.50;;
3755;SDS011;1893;52.526;13.360;2023-08-20T08:39:22;11.43;;;10.33;;
3755;SDS011;1893;52.526;13.360;2023-08-20T08:41:49;10.70;;;9.53;;
3755;SDS011;1893;52.526;13.360;2023-08-20T08:44:16;11.17;;;10.07;;
3755;SDS011;1893;52.526;13.360;2023-08-20T08:46:42;10.70;;;9.50;;
3755;SDS011;1893;52.526;13.360;2023-08-20T08:49:08;9.07;;;8.20;;
3755;SDS011;1893;52.526;13.360;2023-08-20T08:51:34;10.90;;;9.80;;
3755;SDS011;1893;52.526;13.360;2023-08-20T08:54:01;10.43;;;8.90;;
3755;SDS011;1893;52.526;13.360;2023-08-20T08:56:27;10.57;;;8.53;;
3755;SDS011;1893;52.526;13.360;2023-08-20T08:58:53;8.73;;;7.73;;
3755;SDS011;1893;52.526;13.360;2023-08-20T09:01:19;8.30;;;7.60;;
3755;SDS011;1893;52.526;13.360;2023-08-20T09:03:45;8.27;;;7.47;;
3755;SDS011;1893;52.526;13.360;2023-08-20T09:06:11;8.50;;;7.70;;
3755;SDS011;1893;52.526;13.360;2023-08-20T09:08:36;7.27;;;6.67;;
3755;SDS011;1893;52.526;13.360;2023-08-20T09:11:02;7.77;;;7.07;;
3755;SDS011;1893;52.526;13.360;2023-08-20T09:13:37;7.63;;;6.83;;
3755;SDS011;1893;52.526;13.360;2023-08-20T09:16:07;6.87;;;6.17;;
3755;SDS011;1893;52.526;13.360;2023-08-20T09:18:38;8.30;;;7.00;;
3755;SDS011;1893;52.526;13.360;2023-08-20T09:21:09;6.67;;;6.10;;
3755;SDS011;1893;52.526;13.360;2023-08-20T09:23:36;6.87;;;6.17;;
3755;SDS011;1893;52.526;13.360;2023-08-20T09:26:02;8.53;;;6.70;;
3755;SDS011;1893;52.526;13.360;2023-08-20T09:28:29;7.10;;;6.50;;
3755;SDS011;1893;52.526;13.360;2023-08-20T09:31:05;8.60;;;6.53;;
3755;SDS011;1893;52.526;13.360;2023-08-20T09:33:30;5.80;;;5.00;;
3755;SDS011;1893;52.526;13.360;2023-08-20T09:35:56;6.20;;;5.70;;
3755;SDS011;1893;52.526;13.360;2023-08-20T09:38:24;5.50;;;5.00;;
3755;SDS011;1893;52.526;13.360;2023-08-20T09:40:51;6.23;;;5.50;;
3755;SDS011;1893;52.526;13.360;2023-08-20T09:43:18;6.27;;;5.80;;
3755;SDS011;1893;52.526;13.360;2023-08-20T09:45:45;6.00;;;5.60;;
3755;SDS011;1893;52.526;13.360;2023-08-20T09:48:12;7.70;;;6.80;;
3755;SDS011;1893;52.526;13.360;2023-08-20T09:50:43;6.30;;;5.80;;
3755;SDS011;1893;52.526;13.360;2023-08-20T09:53:12;7.27;;;6.00;;
3755;SDS011;1893;52.526;13.360;2023-08-20T09:55:56;6.20;;;5.60;;
3755;SDS011;1893;52.526;13.360;2023-08-20T09:58:29;6.63;;;5.97;;
3755;SDS011;1893;52.526;13.360;2023-08-20T10:00:56;8.87;;;5.23;;
3755;SDS011;1893;52.526;13.360;2023-08-20T10:03:22;7.93;;;4.87;;
3755;SDS011;1893;52.526;13.360;2023-08-20T10:05:50;4.80;;;4.50;;
3755;SDS011;1893;52.526;13.360;2023-08-20T10:08:16;7.90;;;5.20;;
3755;SDS011;1893;52.526;13.360;2023-08-20T10:10:42;4.80;;;4.37;;
3755;SDS011;1893;52.526;13.360;2023-08-20T10:13:08;4.10;;;3.80;;
3755;SDS011;1893;52.526;13.360;2023-08-20T10:15:34;3.70;;;3.40;;
3755;SDS011;1893;52.526;13.360;2023-08-20T10:18:01;3.70;;;3.40;;
3755;SDS011;1893;52.526;13.360;2023-08-20T10:20:31;8.87;;;3.03;;
3755;SDS011;1893;52.526;13.360;2023-08-20T10:22:59;3.90;;;3.60;;
3755;SDS011;1893;52.526;13.360;2023-08-20T10:25:27;2.97;;;2.33;;
3755;SDS011;1893;52.526;13.360;2023-08-20T10:27:53;3.57;;;2.80;;
3755;SDS011;1893;52.526;13.360;2023-08-20T10:30:20;2.67;;;2.47;;
3755;SDS011;1893;52.526;13.360;2023-08-20T10:32:50;2.10;;;2.00;;
3755;SDS011;1893;52.526;13.360;2023-08-20T10:35:17;2.37;;;2.17;;
3755;SDS011;1893;52.526;13.360;2023-08-20T10:41:00;2.53;;;2.33;;
3755;SDS011;1893;52.526;13.360;2023-08-20T10:46:14;4.07;;;2.60;;
3755;SDS011;1893;52.526;13.360;2023-08-20T10:48:42;2.53;;;2.33;;
3755;SDS011;1893;52.526;13.360;2023-08-20T10:51:26;4.43;;;2.70;;
3755;SDS011;1893;52.526;13.360;2023-08-20T10:54:02;3.13;;;2.80;;
3755;SDS011;1893;52.526;13.360;2023-08-20T10:56:46;2.37;;;2.27;;
3755;SDS011;1893;52.526;13.360;2023-08-20T10:59:23;2.70;;;2.50;;
3755;SDS011;1893;52.526;13.360;2023-08-20T11:01:55;4.67;;;2.20;;
3755;SDS011;1893;52.526;13.360;2023-08-20T11:04:25;2.70;;;2.50;;
3755;SDS011;1893;52.526;13.360;2023-08-20T11:06:53;2.83;;;2.63;;
3755;SDS011;1893;52.526;13.360;2023-08-20T11:09:22;2.30;;;2.20;;
3755;SDS011;1893;52.526;13.360;2023-08-20T11:11:49;2.87;;;2.60;;
3755;SDS011;1893;52.526;13.360;2023-08-20T11:14:17;2.00;;;1.90;;
3755;SDS011;1893;52.526;13.360;2023-08-20T11:16:44;2.80;;;2.60;;
3755;SDS011;1893;52.526;13.360;2023-08-20T11:19:14;2.80;;;2.60;;
3755;SDS011;1893;52.526;13.360;2023-08-20T11:21:44;3.00;;;2.20;;
3755;SDS011;1893;52.526;13.360;2023-08-20T11:24:10;3.33;;;3.03;;
3755;SDS011;1893;52.526;13.360;2023-08-20T11:26:38;3.37;;;2.20;;
3755;SDS011;1893;52.526;13.360;2023-08-20T11:29:05;3.50;;;1.93;;
3755;SDS011;1893;52.526;13.360;2023-08-20T11:31:31;4.27;;;2.23;;
3755;SDS011;1893;52.526;13.360;2023-08-20T11:33:57;3.17;;;2.90;;
3755;SDS011;1893;52.526;13.360;2023-08-20T11:36:23;8.70;;;2.67;;
3755;SDS011;1893;52.526;13.360;2023-08-20T11:38:52;4.13;;;2.20;;
3755;SDS011;1893;52.526;13.360;2023-08-20T11:41:18;3.10;;;2.40;;
3755;SDS011;1893;52.526;13.360;2023-08-20T11:43:46;3.20;;;2.53;;
3755;SDS011;1893;52.526;13.360;2023-08-20T11:46:15;2.77;;;2.57;;
3755;SDS011;1893;52.526;13.360;2023-08-20T11:51:49;2.50;;;2.30;;
3755;SDS011;1893;52.526;13.360;2023-08-20T11:54:15;3.60;;;1.87;;
3755;SDS011;1893;52.526;13.360;2023-08-20T11:56:43;3.13;;;2.90;;
3755;SDS011;1893;52.526;13.360;2023-08-20T11:59:13;3.20;;;2.10;;
3755;SDS011;1893;52.526;13.360;2023-08-20T12:01:40;2.77;;;2.57;;
3755;SDS011;1893;52.526;13.360;2023-08-20T12:04:06;3.30;;;3.03;;
3755;SDS011;1893;52.526;13.360;2023-08-20T12:06:33;4.93;;;2.33;;
3755;SDS011;1893;52.526;13.360;2023-08-20T12:08:59;6.30;;;2.60;;
3755;SDS011;1893;52.526;13.360;2023-08-20T12:11:29;3.23;;;2.30;;
3755;SDS011;1893;52.526;13.360;2023-08-20T12:13:55;2.10;;;2.00;;
3755;SDS011;1893;52.526;13.360;2023-08-20T12:16:21;2.83;;;2.50;;
3755;SDS011;1893;52.526;13.360;2023-08-20T12:18:49;2.87;;;2.63;;
3755;SDS011;1893;52.526;13.360;2023-08-20T12:21:15;4.47;;;2.20;;
3755;SDS011;1893;52.526;13.360;2023-08-20T12:23:41;2.43;;;2.33;;
3755;SDS011;1893;52.526;13.360;2023-08-20T12:26:06;2.43;;;2.23;;
3755;SDS011;1893;52.526;13.360;2023-08-20T12:28:35;2.37;;;1.67;;
3755;SDS011;1893;52.526;13.360;2023-08-20T12:31:01;2.10;;;1.90;;
3755;SDS011;1893;52.526;13.360;2023-08-20T12:33:28;1.80;;;1.70;;
3755;SDS011;1893;52.526;13.360;2023-08-20T12:35:53;3.40;;;2.07;;
3755;SDS011;1893;52.526;13.360;2023-08-20T12:38:20;3.80;;;2.73;;
3755;SDS011;1893;52.526;13.360;2023-08-20T12:40:46;1.97;;;1.83;;
3755;SDS011;1893;52.526;13.360;2023-08-20T12:43:11;2.63;;;1.97;;
3755;SDS011;1893;52.526;13.360;2023-08-20T12:45:37;2.03;;;1.93;;
3755;SDS011;1893;52.526;13.360;2023-08-20T12:48:03;2.90;;;2.00;;
3755;SDS011;1893;52.526;13.360;2023-08-20T12:50:30;2.77;;;1.80;;
3755;SDS011;1893;52.526;13.360;2023-08-20T12:52:55;5.23;;;2.07;;
3755;SDS011;1893;52.526;13.360;2023-08-20T12:55:21;3.30;;;2.17;;
3755;SDS011;1893;52.526;13.360;2023-08-20T12:57:53;3.10;;;2.17;;
3755;SDS011;1893;52.526;13.360;2023-08-20T13:00:21;3.67;;;1.83;;
3755;SDS011;1893;52.526;13.360;2023-08-20T13:02:47;2.03;;;1.83;;
3755;SDS011;1893;52.526;13.360;2023-08-20T13:05:13;2.40;;;1.80;;
3755;SDS011;1893;52.526;13.360;2023-08-20T13:07:39;2.07;;;1.70;;
3755;SDS011;1893;52.526;13.360;2023-08-20T13:10:05;3.47;;;2.20;;
3755;SDS011;1893;52.526;13.360;2023-08-20T13:12:33;4.73;;;1.77;;
3755;SDS011;1893;52.526;13.360;2023-08-20T13:14:59;1.70;;;1.53;;
3755;SDS011;1893;52.526;13.360;2023-08-20T13:17:25;1.70;;;1.60;;
3755;SDS011;1893;52.526;13.360;2023-08-20T13:19:51;1.90;;;1.80;;
3755;SDS011;1893;52.526;13.360;2023-08-20T13:22:16;1.53;;;1.43;;
3755;SDS011;1893;52.526;13.360;2023-08-20T13:24:42;1.77;;;1.60;;
3755;SDS011;1893;52.526;13.360;2023-08-20T13:27:08;1.93;;;1.43;;
3755;SDS011;1893;52.526;13.360;2023-08-20T13:29:34;1.93;;;1.40;;
3755;SDS011;1893;52.526;13.360;2023-08-20T13:31:59;2.37;;;1.37;;
3755;SDS011;1893;52.526;13.360;2023-08-20T13:34:25;3.30;;;1.53;;
3755;SDS011;1893;52.526;13.360;2023-08-20T13:36:51;2.97;;;1.97;;
3755;SDS011;1893;52.526;13.360;2023-08-20T13:39:17;2.83;;;1.47;;
3755;SDS011;1893;52.526;13.360;2023-08-20T13:41:43;2.27;;;1.50;;
3755;SDS011;1893;52.526;13.360;2023-08-20T13:44:09;2.60;;;1.50;;
3755;SDS011;1893;52.526;13.360;2023-08-20T13:46:35;1.90;;;1.67;;
3755;SDS011;1893;52.526;13.360;2023-08-20T13:49:01;1.83;;;1.50;;
3755;SDS011;1893;52.526;13.360;2023-08-20T13:51:28;2.40;;;1.43;;
3755;SDS011;1893;52.526;13.360;2023-08-20T13:53:54;1.90;;;1.70;;
3755;SDS011;1893;52.526;13.360;2023-08-20T13:56:20;2.07;;;1.50;;
3755;SDS011;1893;52.526;13.360;2023-08-20T13:58:45;2.30;;;1.77;;
3755;SDS011;1893;52.526;13.360;2023-08-20T14:01:11;3.37;;;1.53;;
3755;SDS011;1893;52.526;13.360;2023-08-20T14:03:38;4.23;;;1.73;;
3755;SDS011;1893;52.526;13.360;2023-08-20T14:06:05;3.03;;;1.33;;
3755;SDS011;1893;52.526;13.360;2023-08-20T14:08:30;2.53;;;1.63;;
3755;SDS011;1893;52.526;13.360;2023-08-20T14:10:57;2.80;;;1.60;;
3755;SDS011;1893;52.526;13.360;2023-08-20T14:13:22;3.70;;;1.37;;
3755;SDS011;1893;52.526;13.360;2023-08-20T14:15:48;1.60;;;1.10;;
3755;SDS011;1893;52.526;13.360;2023-08-20T14:18:14;1.40;;;1.10;;
3755;SDS011;1893;52.526;13.360;2023-08-20T14:20:39;1.30;;;1.20;;
3755;SDS011;1893;52.526;13.360;2023-08-20T14:23:05;2.70;;;1.27;;
3755;SDS011;1893;52.526;13.360;2023-08-20T14:25:30;2.17;;;1.40;;
3755;SDS011;1893;52.526;13.360;2023-08-20T14:27:56;1.93;;;1.30;;
3755;SDS011;1893;52.526;13.360;2023-08-20T14:30:21;1.20;;;1.10;;
3755;SDS011;1893;52.526;13.360;2023-08-20T14:32:47;4.23;;;1.40;;
3755;SDS011;1893;52.526;13.360;2023-08-20T14:35:13;3.13;;;1.90;;
3755;SDS011;1893;52.526;13.360;2023-08-20T14:37:38;1.93;;;1.00;;
3755;SDS011;1893;52.526;13.360;2023-08-20T14:40:04;1.83;;;1.10;;
3755;SDS011;1893;52.526;13.360;2023-08-20T14:42:31;2.07;;;1.40;;
3755;SDS011;1893;52.526;13.360;2023-08-20T14:44:57;2.00;;;1.20;;
3755;SDS011;1893;52.526;13.360;2023-08-20T14:47:23;2.23;;;1.40;;
3755;SDS011;1893;52.526;13.360;2023-08-20T14:49:48;1.83;;;1.17;;
3755;SDS011;1893;52.526;13.360;2023-08-20T14:52:14;2.43;;;1.60;;
3755;SDS011;1893;52.526;13.360;2023-08-20T14:54:40;2.03;;;1.60;;
3755;SDS011;1893;52.526;13.360;2023-08-20T14:57:07;1.50;;;1.20;;
3755;SDS011;1893;52.526;13.360;2023-08-20T14:59:32;1.60;;;1.20;;
3755;SDS011;1893;52.526;13.360;2023-08-20T15:01:59;2.00;;;1.37;;
3755;SDS011;1893;52.526;13.360;2023-08-20T15:04:24;2.50;;;1.10;;